Time;durP1;ratioP1;P1;durP2;ratioP2;P2;SDS_P1;SDS_P2;PMS_P1;PMS_P2;Temp;Humidity;BMP_temperature;BMP_pressure;BME280_temperature;BME280_humidity;BME280_pressure;Samples;Min_cycle;Max_cycle;Signal;HPM_P1;HPM_P2
2021/11/09 00:00:42;;;;;;;9.33;4.30;;;10.00;99.90;;;;;;6191848;23;20604;-67
2021/11/09 00:03:09;;;;;;;4.07;2.80;;;10.00;99.90;;;;;;6184104;23;20153;-66
2021/11/09 00:05:45;;;;;;;7.43;3.83;;;10.00;99.90;;;;;;6180551;23;20540;-66
2021/11/09 00:08:18;;;;;;;8.83;4.00;;;10.00;99.90;;;;;;6177476;23;20568;-67
2021/11/09 00:10:45;;;;;;;10.50;4.07;;;10.00;99.90;;;;;;6177832;23;20703;-66
2021/11/09 00:13:11;;;;;;;5.70;3.93;;;10.00;99.90;;;;;;6178149;23;20567;-66
2021/11/09 00:15:36;;;;;;;7.73;3.50;;;10.00;99.90;;;;;;6178859;23;20544;-66
2021/11/09 00:18:06;;;;;;;7.97;3.67;;;10.00;99.90;;;;;;6179534;23;20533;-66
2021/11/09 00:20:34;;;;;;;7.50;3.80;;;10.00;99.90;;;;;;6178322;23;20216;-66
2021/11/09 00:23:08;;;;;;;7.27;4.03;;;10.00;99.90;;;;;;6180228;23;20550;-66
2021/11/09 00:25:40;;;;;;;8.67;4.03;;;10.00;99.90;;;;;;6179759;23;20517;-67
2021/11/09 00:28:10;;;;;;;8.00;3.67;;;10.00;99.90;;;;;;6177560;23;20562;-66
2021/11/09 00:30:36;;;;;;;6.80;3.60;;;10.00;99.90;;;;;;6176485;23;20619;-67
2021/11/09 00:33:03;;;;;;;10.03;3.83;;;10.00;99.90;;;;;;6176860;23;20565;-66
2021/11/09 00:35:36;;;;;;;6.53;3.70;;;10.00;99.90;;;;;;6178779;23;20559;-66
2021/11/09 00:38:06;;;;;;;9.83;3.67;;;10.00;99.90;;;;;;6179718;23;20508;-66
2021/11/09 00:40:34;;;;;;;9.30;3.70;;;10.00;99.90;;;;;;6176914;23;20617;-66
2021/11/09 00:43:01;;;;;;;6.43;3.77;;;10.00;99.90;;;;;;6178957;23;21437;-66
2021/11/09 00:45:27;;;;;;;6.70;4.30;;;10.00;99.90;;;;;;6178355;23;20564;-67
2021/11/09 00:47:53;;;;;;;12.30;4.83;;;10.10;99.90;;;;;;6178987;23;20576;-66
2021/11/09 00:50:22;;;;;;;9.80;4.30;;;10.10;99.90;;;;;;6177333;23;20596;-66
2021/11/09 00:52:47;;;;;;;7.63;3.60;;;10.10;99.90;;;;;;6176750;23;20568;-66
2021/11/09 00:55:26;;;;;;;8.80;4.23;;;10.10;99.90;;;;;;6180323;23;20968;-67
2021/11/09 00:57:55;;;;;;;6.90;3.47;;;10.00;99.90;;;;;;6179303;23;20153;-66
2021/11/09 01:00:28;;;;;;;9.43;3.90;;;10.10;99.90;;;;;;6177476;23;20734;-66
2021/11/09 01:02:55;;;;;;;5.47;3.50;;;10.10;99.90;;;;;;6178947;23;20555;-66
2021/11/09 01:05:23;;;;;;;7.57;3.77;;;10.10;99.90;;;;;;6178936;23;20552;-66
2021/11/09 01:08:00;;;;;;;10.07;4.10;;;10.10;99.90;;;;;;6179742;23;20536;-66
2021/11/09 01:10:28;;;;;;;12.50;4.80;;;10.10;99.90;;;;;;6176182;23;20599;-66
2021/11/09 01:12:55;;;;;;;7.30;3.73;;;10.10;99.90;;;;;;6178854;23;20540;-66
2021/11/09 01:15:22;;;;;;;7.67;4.10;;;10.10;99.90;;;;;;6177725;23;20551;-66
2021/11/09 01:17:56;;;;;;;8.40;4.00;;;10.10;99.90;;;;;;6177878;23;20528;-66
2021/11/09 01:20:27;;;;;;;9.20;4.13;;;10.10;99.90;;;;;;6178093;23;20657;-67
2021/11/09 01:22:55;;;;;;;10.23;4.00;;;10.10;99.90;;;;;;6176982;23;20563;-66
2021/11/09 01:25:29;;;;;;;12.37;3.50;;;10.10;99.90;;;;;;6176965;23;20564;-67
2021/11/09 01:27:57;;;;;;;6.23;3.27;;;10.10;99.90;;;;;;6179262;23;20587;-66
2021/11/09 01:30:25;;;;;;;4.77;3.10;;;10.10;99.90;;;;;;6177148;23;20608;-66
2021/11/09 01:32:52;;;;;;;9.77;3.83;;;10.10;99.90;;;;;;6178293;23;20547;-66
2021/11/09 01:35:19;;;;;;;9.67;3.80;;;10.10;99.90;;;;;;6175139;23;21018;-66
2021/11/09 01:37:48;;;;;;;6.43;3.77;;;10.10;99.90;;;;;;6179283;23;20540;-67
2021/11/09 01:40:17;;;;;;;7.77;3.40;;;10.10;99.90;;;;;;6147957;23;20609;-67
2021/11/09 01:42:45;;;;;;;10.60;3.87;;;10.10;99.90;;;;;;6148412;23;20572;-67
2021/11/09 01:45:12;;;;;;;6.03;3.33;;;10.10;99.90;;;;;;6148097;23;21104;-66
2021/11/09 01:47:40;;;;;;;11.13;4.30;;;10.10;99.90;;;;;;6147093;23;20564;-66
2021/11/09 01:50:10;;;;;;;6.17;3.60;;;10.10;99.90;;;;;;6148222;23;20735;-67
2021/11/09 01:52:36;;;;;;;7.23;3.53;;;10.10;99.90;;;;;;6149817;23;20540;-66
2021/11/09 01:55:05;;;;;;;7.40;3.60;;;10.10;99.90;;;;;;6149414;23;20541;-66
2021/11/09 01:57:31;;;;;;;7.10;3.30;;;10.00;99.90;;;;;;6147192;23;20575;-67
2021/11/09 01:59:58;;;;;;;7.43;3.60;;;10.00;99.90;;;;;;6146136;23;20594;-67
2021/11/09 02:02:25;;;;;;;9.47;3.53;;;10.10;99.90;;;;;;6149512;23;20620;-67
2021/11/09 02:04:51;;;;;;;6.37;4.00;;;10.00;99.90;;;;;;6163383;23;20526;-67
2021/11/09 02:07:17;;;;;;;5.63;3.40;;;10.00;99.90;;;;;;6167422;23;20564;-67
2021/11/09 02:09:43;;;;;;;13.70;3.43;;;10.00;99.90;;;;;;6165006;23;20996;-67
2021/11/09 02:12:09;;;;;;;5.97;3.60;;;10.00;99.90;;;;;;6147101;23;20209;-66
2021/11/09 02:14:36;;;;;;;7.70;3.67;;;10.00;99.90;;;;;;6151199;23;20157;-67
2021/11/09 02:17:04;;;;;;;9.73;4.10;;;10.00;99.90;;;;;;6150783;23;20546;-66
2021/11/09 02:19:32;;;;;;;10.60;3.33;;;10.00;99.90;;;;;;6151040;23;21003;-67
2021/11/09 02:21:58;;;;;;;9.97;3.33;;;10.00;99.90;;;;;;6149097;23;21550;-66
2021/11/09 02:24:25;;;;;;;7.37;3.20;;;10.10;99.90;;;;;;6148726;23;20542;-66
2021/11/09 02:26:56;;;;;;;9.37;3.00;;;10.10;99.90;;;;;;6151356;23;20207;-66
2021/11/09 02:29:28;;;;;;;8.53;3.57;;;10.10;99.90;;;;;;6150535;23;20636;-66
2021/11/09 02:31:54;;;;;;;9.50;3.47;;;10.10;99.90;;;;;;6151437;23;20679;-66
2021/11/09 02:34:20;;;;;;;8.77;5.20;;;10.00;99.90;;;;;;6150694;23;20548;-66
2021/11/09 02:36:45;;;;;;;6.43;3.43;;;10.00;99.90;;;;;;6151058;23;20552;-66
2021/11/09 02:39:11;;;;;;;8.80;3.70;;;10.00;99.90;;;;;;6148831;23;20550;-66
2021/11/09 02:41:37;;;;;;;8.70;3.10;;;10.00;99.90;;;;;;6149323;23;20379;-67
2021/11/09 02:44:05;;;;;;;13.13;3.80;;;10.00;99.90;;;;;;6149897;23;20232;-67
2021/11/09 02:46:38;;;;;;;6.57;3.50;;;10.00;99.90;;;;;;6150272;23;20149;-66
2021/11/09 02:51:49;;;;;;;9.67;3.67;;;10.00;99.90;;;;;;6149534;23;21181;-69
2021/11/09 02:54:21;;;;;;;9.17;3.67;;;10.00;99.90;;;;;;6148744;23;20588;-67
2021/11/09 02:57:08;;;;;;;12.37;3.87;;;10.00;99.90;;;;;;6151099;23;20501;-67
2021/11/09 02:59:47;;;;;;;10.80;4.00;;;10.00;99.90;;;;;;6148924;23;20576;-66
2021/11/09 03:02:28;;;;;;;;;;;;;;;;;;;;;
2021/11/09 03:07:36;;;;;;;9.60;3.37;;;10.00;99.90;;;;;;6150173;23;20549;-66
2021/11/09 03:10:17;;;;;;;9.87;3.90;;;10.00;99.90;;;;;;6148258;23;20561;-66
2021/11/09 03:12:45;;;;;;;9.13;3.53;;;10.00;99.90;;;;;;6149817;23;20490;-67
2021/11/09 03:15:17;;;;;;;9.20;3.80;;;10.00;99.90;;;;;;6150085;23;20538;-66
2021/11/09 03:17:53;;;;;;;9.23;3.30;;;10.00;99.90;;;;;;6150739;23;20935;-66
2021/11/09 03:20:36;;;;;;;7.97;5.20;;;10.00;99.90;;;;;;6172634;23;20650;-66
2021/11/09 03:45:19;;;;;;;6.33;5.07;;;10.00;99.90;;;;;;6147413;23;20540;-66
2021/11/09 03:47:48;;;;;;;10.20;4.00;;;10.00;99.90;;;;;;6151196;23;20489;-66
2021/11/09 03:50:17;;;;;;;9.40;4.83;;;10.00;99.90;;;;;;6149271;23;20933;-65
2021/11/09 03:52:52;;;;;;;12.33;5.00;;;10.00;99.90;;;;;;6149135;23;20557;-66
2021/11/09 03:55:37;;;;;;;9.43;5.90;;;10.00;99.90;;;;;;6150225;23;20497;-66
2021/11/09 03:58:17;;;;;;;10.77;4.80;;;10.00;99.90;;;;;;6150770;23;20490;-66
2021/11/09 04:00:58;;;;;;;10.23;4.30;;;10.00;99.90;;;;;;6147438;23;20612;-66
2021/11/09 04:05:57;;;;;;;13.63;5.13;;;10.00;99.90;;;;;;6148846;23;20559;-66
2021/11/09 04:11:17;;;;;;;15.17;5.57;;;10.00;99.90;;;;;;6154115;23;20600;-66
2021/11/09 04:13:54;;;;;;;9.17;5.70;;;10.00;99.90;;;;;;6149172;23;21017;-66
2021/11/09 04:19:02;;;;;;;10.33;5.40;;;10.00;99.90;;;;;;6159464;23;20540;-66
2021/11/09 04:21:53;;;;;;;9.87;6.00;;;9.90;99.90;;;;;;6148333;23;21184;-66
2021/11/09 04:24:42;;;;;;;6.73;5.37;;;10.00;99.90;;;;;;6169475;23;20634;-67
2021/11/09 05:10:24;;;;;;;10.70;7.43;;;10.00;99.90;;;;;;6148596;23;21156;-66
2021/11/09 05:12:49;;;;;;;12.87;7.37;;;10.10;99.90;;;;;;6147667;23;20634;-66
2021/11/09 05:15:17;;;;;;;12.70;7.30;;;10.00;99.90;;;;;;6149435;23;20720;-66
2021/11/09 05:17:43;;;;;;;8.83;7.20;;;10.00;99.90;;;;;;6148892;23;20165;-66
2021/11/09 05:20:14;;;;;;;8.87;6.83;;;10.00;99.90;;;;;;6148259;23;21111;-66
2021/11/09 05:22:44;;;;;;;8.17;6.80;;;10.00;99.90;;;;;;6148341;23;20162;-66
2021/11/09 05:25:10;;;;;;;11.00;7.20;;;10.00;99.90;;;;;;6148884;23;20494;-66
2021/11/09 05:27:36;;;;;;;7.10;6.00;;;10.00;99.90;;;;;;6149863;23;20526;-66
2021/11/09 05:30:05;;;;;;;11.20;6.07;;;10.00;99.90;;;;;;6149222;23;20625;-66
2021/11/09 05:32:31;;;;;;;5.93;5.33;;;10.00;99.90;;;;;;6148159;23;20640;-66
2021/11/09 05:34:57;;;;;;;8.10;5.70;;;10.00;99.90;;;;;;6142032;23;20564;-66
2021/11/09 05:37:28;;;;;;;6.97;4.83;;;10.00;99.90;;;;;;6147579;23;20595;-65
2021/11/09 05:39:55;;;;;;;6.20;4.97;;;10.00;99.90;;;;;;6152338;23;20135;-66
2021/11/09 05:42:22;;;;;;;5.60;5.10;;;9.90;99.90;;;;;;6152688;23;20589;-66
2021/11/09 05:44:49;;;;;;;5.30;4.30;;;9.90;99.90;;;;;;6149991;23;20534;-66
2021/11/09 05:47:15;;;;;;;7.70;4.53;;;9.90;99.90;;;;;;6152976;23;20537;-66
2021/11/09 05:49:41;;;;;;;4.70;4.13;;;9.90;99.90;;;;;;6151735;23;20528;-66
2021/11/09 05:52:15;;;;;;;7.10;4.23;;;9.90;99.90;;;;;;6151369;23;20600;-65
2021/11/09 05:54:41;;;;;;;6.43;4.90;;;9.90;99.90;;;;;;6147296;23;20498;-66
2021/11/09 05:57:26;;;;;;;5.73;4.70;;;9.90;99.90;;;;;;6151463;23;20860;-67
2021/11/09 05:59:54;;;;;;;5.83;4.27;;;9.90;99.90;;;;;;6149512;23;20197;-66
2021/11/09 06:02:22;;;;;;;7.00;4.33;;;9.90;99.90;;;;;;6148191;23;20597;-67
2021/11/09 06:04:52;;;;;;;8.37;5.17;;;9.90;99.90;;;;;;6150946;23;20580;-68
2021/11/09 06:07:18;;;;;;;7.57;5.83;;;9.90;99.90;;;;;;6146481;23;20541;-66
2021/11/09 06:09:44;;;;;;;9.73;5.40;;;10.00;99.90;;;;;;6137593;23;20660;-66
2021/11/09 06:12:14;;;;;;;9.67;5.80;;;10.00;99.90;;;;;;6140100;23;20680;-66
2021/11/09 06:14:42;;;;;;;8.70;5.83;;;10.00;99.90;;;;;;6142188;23;20164;-65
2021/11/09 06:17:10;;;;;;;10.17;5.87;;;9.90;99.90;;;;;;6150206;23;20607;-65
2021/11/09 06:19:35;;;;;;;6.97;5.73;;;10.00;99.90;;;;;;6152183;23;20564;-66
2021/11/09 06:22:01;;;;;;;11.23;6.90;;;10.00;99.90;;;;;;6150120;23;20589;-66
2021/11/09 06:24:27;;;;;;;10.40;6.70;;;10.00;99.90;;;;;;6152798;23;20169;-66
2021/11/09 06:26:53;;;;;;;8.17;6.70;;;10.00;99.90;;;;;;6151992;23;20939;-65
2021/11/09 06:29:19;;;;;;;9.37;6.53;;;10.00;99.90;;;;;;6152510;23;20153;-65
2021/11/09 06:31:45;;;;;;;9.90;7.63;;;10.00;99.90;;;;;;6150021;23;20260;-66
2021/11/09 06:34:11;;;;;;;8.87;7.13;;;10.00;99.90;;;;;;6152340;23;20904;-66
2021/11/09 06:36:37;;;;;;;9.70;6.60;;;10.00;99.90;;;;;;6154044;23;20158;-66
2021/11/09 06:39:03;;;;;;;9.70;7.43;;;9.90;99.90;;;;;;6151006;23;20663;-66
2021/11/09 06:41:29;;;;;;;9.63;7.47;;;10.00;99.90;;;;;;6149137;23;20209;-66
2021/11/09 06:43:56;;;;;;;10.70;7.60;;;10.00;99.90;;;;;;6151901;23;21080;-66
2021/11/09 06:46:24;;;;;;;10.50;7.50;;;10.00;99.90;;;;;;6154177;23;20674;-66
2021/11/09 06:48:50;;;;;;;12.57;7.83;;;10.00;99.90;;;;;;6153725;23;20539;-66
2021/11/09 06:51:17;;;;;;;12.50;7.63;;;10.00;99.90;;;;;;6152424;23;20585;-66
2021/11/09 06:53:45;;;;;;;10.30;8.07;;;10.10;99.90;;;;;;6153753;23;20207;-66
2021/11/09 06:56:11;;;;;;;12.97;8.33;;;10.10;99.90;;;;;;6152998;23;21058;-65
2021/11/09 06:58:37;;;;;;;10.40;8.70;;;10.10;99.90;;;;;;6150743;23;20564;-65
2021/11/09 07:01:04;;;;;;;13.80;9.13;;;10.10;99.90;;;;;;6151488;23;20263;-65
2021/11/09 07:03:33;;;;;;;13.00;8.67;;;10.10;99.90;;;;;;6152950;23;20157;-65
2021/11/09 07:06:04;;;;;;;12.50;8.63;;;10.10;99.90;;;;;;6153057;23;20537;-65
2021/11/09 07:08:33;;;;;;;11.30;8.23;;;10.10;99.90;;;;;;6152273;23;21015;-65
2021/11/09 07:11:03;;;;;;;12.23;7.90;;;10.10;99.90;;;;;;6151970;23;20635;-65
2021/11/09 07:13:34;;;;;;;9.27;7.63;;;10.00;99.90;;;;;;6152781;23;20553;-65
2021/11/09 07:16:03;;;;;;;9.03;7.50;;;10.00;99.90;;;;;;6152980;23;20537;-65
2021/11/09 07:18:33;;;;;;;12.90;8.10;;;10.00;99.90;;;;;;6152381;23;20539;-64
2021/11/09 07:20:58;;;;;;;12.80;8.37;;;10.00;99.90;;;;;;6151349;23;20608;-65
2021/11/09 07:23:24;;;;;;;11.77;8.17;;;10.00;99.90;;;;;;6151788;23;20563;-65
2021/11/09 07:25:50;;;;;;;15.03;8.40;;;10.00;99.90;;;;;;6151160;23;20162;-65
2021/11/09 07:28:16;;;;;;;12.90;8.77;;;10.10;99.90;;;;;;6153195;23;20200;-65
2021/11/09 07:30:43;;;;;;;11.63;8.80;;;10.10;99.90;;;;;;6151757;23;20606;-65
2021/11/09 07:33:10;;;;;;;10.30;8.00;;;10.00;99.90;;;;;;6153158;23;20525;-65
2021/11/09 07:35:37;;;;;;;11.37;8.83;;;9.90;99.90;;;;;;6152553;23;21050;-64
2021/11/09 07:38:06;;;;;;;14.70;9.87;;;9.90;99.90;;;;;;6153023;23;20865;-65
2021/11/09 07:40:33;;;;;;;12.10;8.70;;;10.00;99.90;;;;;;6150598;23;20612;-64
2021/11/09 07:42:58;;;;;;;14.23;9.07;;;9.90;99.90;;;;;;6150460;23;20553;-65
2021/11/09 07:45:24;;;;;;;14.90;10.00;;;10.00;99.90;;;;;;6150531;23;20644;-65
2021/11/09 07:47:58;;;;;;;13.37;9.07;;;10.00;99.90;;;;;;6151712;23;20153;-65
2021/11/09 07:50:29;;;;;;;13.20;8.90;;;10.00;99.90;;;;;;6172288;23;20205;-65
2021/11/09 07:53:13;;;;;;;11.30;9.93;;;10.00;99.90;;;;;;6150532;23;20588;-64
2021/11/09 07:56:26;;;;;;;14.03;9.63;;;9.90;99.90;;;;;;6152059;23;20533;-65
2021/11/09 07:58:37;;;;;;;13.80;10.23;;;9.90;99.90;;;;;;6147471;23;20944;-65
2021/11/09 08:01:13;;;;;;;11.93;9.50;;;9.90;99.90;;;;;;6150245;23;20963;-66
2021/11/09 08:03:59;;;;;;;15.47;8.23;;;9.90;99.90;;;;;;6152111;23;20505;-65
2021/11/09 08:06:27;;;;;;;16.00;10.63;;;9.90;99.90;;;;;;6151960;23;20596;-64
2021/11/09 08:11:42;;;;;;;12.57;8.73;;;10.00;99.90;;;;;;6150766;23;20600;-65
2021/11/09 08:14:09;;;;;;;9.37;7.40;;;10.00;99.90;;;;;;6149958;23;20572;-65
2021/11/09 08:16:40;;;;;;;10.10;6.80;;;10.10;99.90;;;;;;6151551;23;21097;-65
2021/11/09 08:19:09;;;;;;;10.30;6.63;;;10.10;99.90;;;;;;6150260;23;21141;-65
2021/11/09 08:21:39;;;;;;;8.53;6.33;;;10.10;99.90;;;;;;6150575;23;21272;-65
2021/11/09 08:24:13;;;;;;;9.10;6.50;;;10.20;99.90;;;;;;6150754;23;20569;-65
2021/11/09 08:26:39;;;;;;;8.93;5.60;;;10.20;99.90;;;;;;6152180;23;20591;-64
2021/11/09 08:29:06;;;;;;;9.57;5.00;;;10.20;99.90;;;;;;6151699;23;20533;-65
2021/11/09 08:31:34;;;;;;;9.23;5.87;;;10.30;99.90;;;;;;6152484;23;20211;-65
2021/11/09 08:34:02;;;;;;;7.63;4.97;;;10.30;99.90;;;;;;6150873;23;20609;-65
2021/11/09 08:36:31;;;;;;;8.57;4.77;;;10.40;99.90;;;;;;6150319;23;20914;-65
2021/11/09 08:39:02;;;;;;;6.50;5.10;;;10.30;99.90;;;;;;6149611;23;20534;-65
2021/11/09 08:41:36;;;;;;;5.23;4.60;;;10.40;99.90;;;;;;6149789;23;21165;-65
2021/11/09 08:44:07;;;;;;;9.93;5.87;;;10.30;99.90;;;;;;6149644;23;21094;-65
2021/11/09 08:46:41;;;;;;;8.40;5.50;;;10.40;99.90;;;;;;6151065;23;20864;-65
2021/11/09 08:49:12;;;;;;;8.23;5.83;;;10.40;99.90;;;;;;6147959;23;20506;-65
2021/11/09 08:51:39;;;;;;;10.30;6.97;;;10.40;99.90;;;;;;6149780;23;20600;-65
2021/11/09 08:54:14;;;;;;;15.07;9.00;;;10.40;99.90;;;;;;6151931;23;20548;-65
2021/11/09 09:05:04;;;;;;;14.97;8.97;;;10.50;99.90;;;;;;6151644;23;20544;-65
2021/11/09 09:07:30;;;;;;;12.73;8.23;;;10.70;99.90;;;;;;6152538;23;20537;-65
2021/11/09 09:09:57;;;;;;;12.40;8.37;;;10.70;99.90;;;;;;6150557;23;20560;-64
2021/11/09 09:12:27;;;;;;;12.90;8.93;;;10.70;99.90;;;;;;6152896;23;20497;-65
2021/11/09 09:14:54;;;;;;;14.70;10.10;;;10.80;99.90;;;;;;6151107;23;21082;-65
2021/11/09 09:17:30;;;;;;;13.60;8.47;;;10.80;99.90;;;;;;6149896;23;20569;-65
2021/11/09 09:20:00;;;;;;;13.13;8.50;;;10.80;99.90;;;;;;6174618;23;20561;-65
2021/11/09 09:22:35;;;;;;;13.20;8.50;;;10.80;99.90;;;;;;6150800;23;21217;-65
2021/11/09 09:28:18;;;;;;;;;;;;;;;;;;;;;
2021/11/09 09:30:36;;;;;;;17.83;9.93;;;11.00;99.90;;;;;;6158139;23;20593;-64
2021/11/09 09:52:34;;;;;;;20.80;11.57;;;11.30;99.90;;;;;;6147515;23;21169;-65
2021/11/09 09:57:39;;;;;;;13.83;11.43;;;11.50;99.90;;;;;;6146537;23;20540;-65
2021/11/09 10:00:05;;;;;;;14.77;11.07;;;11.50;99.90;;;;;;6140850;23;20632;-65
2021/11/09 10:02:33;;;;;;;15.40;12.60;;;11.50;99.90;;;;;;6150258;23;20173;-65
2021/11/09 10:05:08;;;;;;;18.07;12.13;;;11.60;99.90;;;;;;6149939;23;20525;-65
2021/11/09 10:07:41;;;;;;;18.37;12.20;;;11.60;99.90;;;;;;6151166;23;20521;-65
2021/11/09 10:10:12;;;;;;;18.47;11.33;;;11.70;99.90;;;;;;6150724;23;20580;-65
2021/11/09 10:12:40;;;;;;;17.90;11.20;;;11.70;99.90;;;;;;6151524;23;20600;-65
2021/11/09 10:15:19;;;;;;;18.30;11.57;;;11.70;99.90;;;;;;6149166;23;20569;-65
2021/11/09 10:17:48;;;;;;;17.57;11.30;;;11.80;99.90;;;;;;6149374;23;20561;-65
2021/11/09 10:20:25;;;;;;;17.80;11.27;;;11.80;99.90;;;;;;6146524;23;20589;-65
2021/11/09 10:22:59;;;;;;;16.83;11.37;;;11.90;99.90;;;;;;6149920;23;20536;-64
2021/11/09 10:25:26;;;;;;;15.43;10.57;;;11.90;99.90;;;;;;6150154;23;20501;-65
2021/11/09 10:28:03;;;;;;;14.27;10.30;;;12.00;99.90;;;;;;6152352;23;21293;-65
2021/11/09 10:30:36;;;;;;;18.83;10.47;;;12.00;99.90;;;;;;6149988;23;21137;-65
2021/11/09 10:33:05;;;;;;;14.20;10.40;;;12.00;99.90;;;;;;6150366;23;20640;-66
2021/11/09 10:35:36;;;;;;;17.13;10.60;;;12.10;99.90;;;;;;6149881;23;20616;-65
2021/11/09 10:38:05;;;;;;;13.87;10.27;;;12.20;99.90;;;;;;6152978;23;20599;-65
2021/11/09 10:40:50;;;;;;;15.70;10.70;;;12.20;99.90;;;;;;6150291;23;20608;-65
2021/11/09 10:43:20;;;;;;;14.47;10.10;;;12.30;99.90;;;;;;6148031;23;20531;-66
2021/11/09 10:45:47;;;;;;;19.47;9.83;;;12.30;99.90;;;;;;6148229;23;20510;-65
2021/11/09 10:48:18;;;;;;;17.23;10.17;;;12.30;99.90;;;;;;6148062;23;20561;-65
2021/11/09 10:50:52;;;;;;;24.30;9.97;;;12.20;99.90;;;;;;6144851;23;20683;-65
2021/11/09 10:53:34;;;;;;;17.70;9.07;;;12.30;99.90;;;;;;6149371;23;20524;-66
2021/11/09 10:56:27;;;;;;;17.97;9.60;;;12.40;99.90;;;;;;6145550;23;20592;-65
2021/11/09 11:04:48;;;;;;;12.63;8.80;;;12.60;99.90;;;;;;6146051;23;20560;-66
2021/11/09 11:07:16;;;;;;;15.40;8.27;;;12.70;99.90;;;;;;6148308;23;20545;-65
2021/11/09 11:09:59;;;;;;;16.27;8.53;;;12.80;99.90;;;;;;6147854;23;20168;-65
2021/11/09 11:12:31;;;;;;;16.53;8.33;;;12.90;99.90;;;;;;6146283;23;21177;-65
2021/11/09 11:15:08;;;;;;;12.33;8.13;;;13.00;99.90;;;;;;6144914;23;20996;-65
2021/11/09 11:17:38;;;;;;;11.80;8.43;;;13.20;99.90;;;;;;6144917;23;20502;-67
2021/11/09 11:20:04;;;;;;;14.10;9.03;;;13.30;99.90;;;;;;6149116;23;20953;-67
2021/11/09 11:22:32;;;;;;;12.00;8.43;;;13.40;99.90;;;;;;6149486;23;20624;-66
2021/11/09 11:25:00;;;;;;;13.30;8.00;;;13.50;99.90;;;;;;6145272;23;20607;-66
2021/11/09 11:27:30;;;;;;;12.63;7.97;;;13.60;99.90;;;;;;6148402;23;20613;-66
2021/11/09 11:30:00;;;;;;;14.10;7.90;;;13.70;99.90;;;;;;6147976;23;20529;-67
2021/11/09 11:32:32;;;;;;;15.37;8.30;;;13.70;99.90;;;;;;6147905;23;20622;-66
2021/11/09 11:34:58;;;;;;;11.20;7.40;;;13.80;99.90;;;;;;6147892;23;20538;-66
2021/11/09 11:37:26;;;;;;;12.73;6.90;;;13.70;99.90;;;;;;6147366;23;20576;-66
2021/11/09 11:39:57;;;;;;;10.07;7.30;;;14.00;99.90;;;;;;6148417;23;20173;-66
2021/11/09 11:42:22;;;;;;;13.87;7.60;;;14.20;99.90;;;;;;6148827;23;20632;-66
2021/11/09 11:45:06;;;;;;;13.53;7.47;;;14.40;99.90;;;;;;6147358;23;20867;-66
2021/11/09 11:47:34;;;;;;;12.30;8.40;;;14.60;99.90;;;;;;6148034;23;20152;-66
2021/11/09 11:50:10;;;;;;;12.30;7.37;;;14.90;99.90;;;;;;6145770;23;20584;-66
2021/11/09 11:52:44;;;;;;;12.30;6.90;;;14.90;99.90;;;;;;6149127;23;20533;-65
2021/11/09 11:55:32;;;;;;;13.43;7.13;;;15.10;99.90;;;;;;6160124;23;20537;-67
2021/11/09 11:58:14;;;;;;;12.30;7.97;;;15.20;99.90;;;;;;6163300;23;20510;-66
2021/11/09 12:01:12;;;;;;;13.77;7.70;;;15.40;99.90;;;;;;6158611;23;20617;-66
2021/11/09 12:03:38;;;;;;;9.20;6.73;;;15.60;99.90;;;;;;6154558;23;20720;-66
2021/11/09 12:06:21;;;;;;;13.93;7.30;;;16.60;99.90;;;;;;6153131;23;20620;-65
2021/11/09 12:08:49;;;;;;;8.70;6.43;;;16.70;99.90;;;;;;6152799;23;20501;-66
2021/11/09 12:11:24;;;;;;;12.50;6.03;;;17.90;99.90;;;;;;6175175;23;20973;-66
2021/11/09 12:13:56;;;;;;;8.90;5.97;;;19.60;99.90;;;;;;6153062;23;20528;-67
2021/11/09 12:16:44;;;;;;;8.33;5.90;;;21.20;99.90;;;;;;6152282;23;20542;-66
2021/11/09 12:19:48;;;;;;;8.80;6.20;;;22.80;99.90;;;;;;6149379;23;20856;-67
2021/11/09 12:22:18;;;;;;;10.97;5.93;;;25.10;99.90;;;;;;6089763;23;20633;-66
2021/11/09 12:25:00;;;;;;;10.03;6.13;;;27.00;94.30;;;;;;6141922;23;20549;-66
2021/11/09 12:28:12;;;;;;;8.10;6.53;;;28.20;86.70;;;;;;6152339;23;20505;-66
2021/11/09 12:30:45;;;;;;;9.97;6.40;;;29.40;76.00;;;;;;6089493;23;20985;-66
2021/11/09 12:33:14;;;;;;;8.97;6.10;;;30.30;69.20;;;;;;6143813;23;20582;-66
2021/11/09 12:35:55;;;;;;;9.90;6.00;;;30.30;66.50;;;;;;6151567;23;20572;-66
2021/11/09 12:38:31;;;;;;;11.13;5.90;;;29.50;65.10;;;;;;6151660;23;20590;-67
2021/11/09 12:41:10;;;;;;;10.50;5.47;;;27.70;65.70;;;;;;6149480;23;20608;-66
2021/11/09 12:43:43;;;;;;;9.87;5.67;;;27.00;67.40;;;;;;6150984;23;20561;-66
2021/11/09 12:46:21;;;;;;;9.20;5.53;;;28.10;66.80;;;;;;6149818;23;20952;-66
2021/11/09 12:48:55;;;;;;;6.70;5.60;;;28.70;64.60;;;;;;6151416;23;20508;-66
2021/11/09 12:51:27;;;;;;;10.47;6.77;;;28.50;64.00;;;;;;6149166;23;20959;-66
2021/11/09 12:54:01;;;;;;;8.43;5.63;;;28.00;63.40;;;;;;6151286;23;20517;-66
2021/11/09 12:56:37;;;;;;;7.97;6.50;;;26.60;64.40;;;;;;6151635;23;20505;-65
2021/11/09 12:59:28;;;;;;;8.40;6.70;;;24.40;67.80;;;;;;6151600;23;20505;-67
2021/11/09 13:04:54;;;;;;;9.23;6.87;;;21.10;80.40;;;;;;6161362;23;21053;-67
2021/11/09 13:07:39;;;;;;;13.37;7.60;;;20.30;86.80;;;;;;6151770;23;20659;-66
2021/11/09 13:10:11;;;;;;;9.53;7.20;;;19.50;89.80;;;;;;6150920;23;20920;-66
2021/11/09 13:12:41;;;;;;;11.00;8.13;;;18.90;92.90;;;;;;6151910;23;20497;-66
2021/11/09 13:15:10;;;;;;;11.57;8.13;;;18.50;93.90;;;;;;6152241;23;20526;-66
2021/11/09 13:17:44;;;;;;;15.53;8.83;;;18.00;95.60;;;;;;6151969;23;20522;-66
2021/11/09 13:23:24;;;;;;;11.17;8.10;;;17.30;98.40;;;;;;6162494;23;21079;-66
2021/11/09 13:25:58;;;;;;;11.50;7.77;;;17.10;99.50;;;;;;6150636;23;20556;-66
2021/11/09 13:28:26;;;;;;;9.20;7.00;;;17.40;99.60;;;;;;6151161;23;20502;-66
2021/11/09 13:30:58;;;;;;;9.33;6.63;;;17.30;99.90;;;;;;6151167;23;20593;-66
2021/11/09 13:33:25;;;;;;;9.97;6.80;;;16.90;99.90;;;;;;6151613;23;20501;-66
2021/11/09 13:35:55;;;;;;;9.90;6.00;;;16.60;99.90;;;;;;6150438;23;20625;-66
2021/11/09 13:38:42;;;;;;;10.00;6.57;;;16.40;99.90;;;;;;6150323;23;20929;-66
2021/11/09 13:41:23;;;;;;;8.43;5.47;;;16.10;99.90;;;;;;6149382;23;20644;-65
2021/11/09 13:43:55;;;;;;;7.57;5.60;;;15.70;99.90;;;;;;6150288;23;20561;-65
2021/11/09 13:46:32;;;;;;;7.30;5.33;;;15.40;99.90;;;;;;6149726;23;20565;-66
2021/11/09 13:49:20;;;;;;;7.33;5.40;;;15.20;99.90;;;;;;6150779;23;20505;-65
2021/11/09 13:51:58;;;;;;;9.10;4.40;;;14.90;99.90;;;;;;6151354;23;20696;-65
2021/11/09 13:54:27;;;;;;;7.13;4.47;;;14.70;99.90;;;;;;6151178;23;20498;-65
2021/11/09 13:56:56;;;;;;;6.90;5.37;;;14.50;99.90;;;;;;6150660;23;20576;-65
2021/11/09 13:59:26;;;;;;;6.60;5.37;;;14.40;99.90;;;;;;6151171;23;20537;-66
2021/11/09 14:12:44;;;;;;;6.93;4.53;;;14.00;99.90;;;;;;6152626;23;20952;-65
2021/11/09 14:15:41;;;;;;;11.13;5.13;;;14.00;99.90;;;;;;6153677;23;20901;-65
2021/11/09 14:18:23;;;;;;;6.33;4.40;;;13.80;99.90;;;;;;6151878;23;20560;-65
2021/11/09 14:20:57;;;;;;;8.10;4.70;;;13.70;99.90;;;;;;6150538;23;20610;-65
2021/11/09 14:23:40;;;;;;;10.70;4.77;;;13.70;99.90;;;;;;6152877;23;20553;-65
2021/11/09 14:26:20;;;;;;;8.97;4.80;;;13.60;99.90;;;;;;6152884;23;20533;-66
2021/11/09 14:28:47;;;;;;;6.90;4.70;;;13.50;99.90;;;;;;6153208;23;20502;-65
2021/11/09 14:31:28;;;;;;;7.40;4.20;;;13.60;99.90;;;;;;6152066;23;20607;-65
2021/11/09 14:34:18;;;;;;;6.90;4.70;;;13.50;99.90;;;;;;6152715;23;20494;-67
2021/11/09 14:36:51;;;;;;;9.90;4.80;;;13.40;99.90;;;;;;6150729;23;20907;-65
2021/11/09 14:39:25;;;;;;;7.60;4.57;;;13.30;99.90;;;;;;6149462;23;20509;-65
2021/11/09 14:42:07;;;;;;;7.83;4.70;;;13.20;99.90;;;;;;6150128;23;20630;-64
2021/11/09 14:45:03;;;;;;;6.57;4.90;;;13.20;99.90;;;;;;6151487;23;20500;-65
2021/11/09 14:47:46;;;;;;;4.60;4.13;;;13.20;99.90;;;;;;6149350;23;20581;-65
2021/11/09 14:50:20;;;;;;;7.17;4.57;;;13.10;99.90;;;;;;6149712;23;20569;-64
2021/11/09 14:52:46;;;;;;;6.97;4.80;;;13.10;99.90;;;;;;6149374;23;20545;-64
2021/11/09 14:55:19;;;;;;;8.13;4.90;;;13.10;99.90;;;;;;6151119;23;20866;-64
2021/11/09 14:57:47;;;;;;;13.03;6.10;;;13.00;99.90;;;;;;6174297;23;20623;-64
2021/11/09 15:00:16;;;;;;;9.13;5.33;;;13.00;99.90;;;;;;6148360;23;21174;-64
2021/11/09 15:02:44;;;;;;;6.33;4.60;;;12.90;99.90;;;;;;6151254;23;20502;-64
2021/11/09 15:05:24;;;;;;;8.80;4.50;;;12.90;99.90;;;;;;6149011;23;20881;-64
2021/11/09 15:10:45;;;;;;;6.83;4.93;;;12.80;99.90;;;;;;6151459;23;20596;-64
2021/11/09 15:13:28;;;;;;;9.13;4.97;;;12.70;99.90;;;;;;6151147;23;20511;-64
2021/11/09 15:29:48;;;;;;;7.97;4.83;;;12.50;99.90;;;;;;6162506;23;20525;-64
2021/11/09 15:32:34;;;;;;;9.17;4.43;;;12.50;99.90;;;;;;6150198;23;20942;-64
2021/11/09 15:35:13;;;;;;;6.37;4.20;;;12.50;99.90;;;;;;6149646;23;21090;-65
2021/11/09 15:37:42;;;;;;;7.70;4.70;;;12.40;99.90;;;;;;6151941;23;20846;-65
2021/11/09 15:40:12;;;;;;;9.13;5.00;;;12.40;99.90;;;;;;6152044;23;20557;-64
2021/11/09 15:42:40;;;;;;;8.37;4.97;;;12.40;99.90;;;;;;6152784;23;21125;-65